sensor_id;sensor_type;location;lat;lon;timestamp;P1;durP1;ratioP1;P2;durP2;ratioP2
77449;SDS011;66536;53.150;18.172;2023-04-07T00:00:06;8.00;;;4.10;;
77449;SDS011;66536;53.150;18.172;2023-04-07T00:02:57;11.60;;;5.30;;
77449;SDS011;66536;53.150;18.172;2023-04-07T00:05:24;19.90;;;11.80;;
77449;SDS011;66536;53.150;18.172;2023-04-07T00:07:50;16.20;;;6.40;;
77449;SDS011;66536;53.150;18.172;2023-04-07T00:10:16;9.40;;;5.40;;
77449;SDS011;66536;53.150;18.172;2023-04-07T00:12:42;12.50;;;6.30;;
77449;SDS011;66536;53.150;18.172;2023-04-07T00:15:08;14.30;;;6.30;;
77449;SDS011;66536;53.150;18.172;2023-04-07T00:17:34;11.40;;;5.70;;
77449;SDS011;66536;53.150;18.172;2023-04-07T00:20:00;13.60;;;6.70;;
77449;SDS011;66536;53.150;18.172;2023-04-07T00:22:26;12.20;;;6.60;;
77449;SDS011;66536;53.150;18.172;2023-04-07T00:24:52;10.10;;;4.60;;
77449;SDS011;66536;53.150;18.172;2023-04-07T00:27:19;14.10;;;6.20;;
77449;SDS011;66536;53.150;18.172;2023-04-07T00:29:47;10.30;;;4.80;;
77449;SDS011;66536;53.150;18.172;2023-04-07T00:32:13;16.20;;;6.60;;
77449;SDS011;66536;53.150;18.172;2023-04-07T00:34:39;10.50;;;5.40;;
77449;SDS011;66536;53.150;18.172;2023-04-07T00:37:05;16.00;;;5.80;;
77449;SDS011;66536;53.150;18.172;2023-04-07T00:39:31;12.10;;;6.60;;
77449;SDS011;66536;53.150;18.172;2023-04-07T00:41:57;9.10;;;4.00;;
77449;SDS011;66536;53.150;18.172;2023-04-07T00:44:23;16.60;;;7.00;;
77449;SDS011;66536;53.150;18.172;2023-04-07T00:46:49;13.40;;;5.00;;
77449;SDS011;66536;53.150;18.172;2023-04-07T00:49:15;16.80;;;7.20;;
77449;SDS011;66536;53.150;18.172;2023-04-07T00:51:43;16.90;;;8.10;;
77449;SDS011;66536;53.150;18.172;2023-04-07T00:54:10;15.80;;;6.60;;
77449;SDS011;66536;53.150;18.172;2023-04-07T00:56:36;14.60;;;6.80;;
77449;SDS011;66536;53.150;18.172;2023-04-07T00:59:03;14.50;;;6.90;;
77449;SDS011;66536;53.150;18.172;2023-04-07T01:01:31;15.50;;;7.10;;
77449;SDS011;66536;53.150;18.172;2023-04-07T01:04:08;12.80;;;5.90;;
77449;SDS011;66536;53.150;18.172;2023-04-07T01:06:39;16.70;;;7.60;;
77449;SDS011;66536;53.150;18.172;2023-04-07T01:09:17;15.80;;;7.70;;
77449;SDS011;66536;53.150;18.172;2023-04-07T01:11:50;11.70;;;5.20;;
77449;SDS011;66536;53.150;18.172;2023-04-07T01:14:24;14.70;;;5.90;;
77449;SDS011;66536;53.150;18.172;2023-04-07T01:17:04;16.00;;;7.60;;
77449;SDS011;66536;53.150;18.172;2023-04-07T01:19:36;16.20;;;8.00;;
77449;SDS011;66536;53.150;18.172;2023-04-07T01:22:10;11.10;;;5.60;;
77449;SDS011;66536;53.150;18.172;2023-04-07T01:27:37;17.80;;;8.10;;
77449;SDS011;66536;53.150;18.172;2023-04-07T01:30:14;16.80;;;6.60;;
77449;SDS011;66536;53.150;18.172;2023-04-07T01:32:42;15.10;;;7.30;;
77449;SDS011;66536;53.150;18.172;2023-04-07T01:35:12;17.60;;;7.40;;
77449;SDS011;66536;53.150;18.172;2023-04-07T01:37:39;15.60;;;8.10;;
77449;SDS011;66536;53.150;18.172;2023-04-07T01:40:06;8.40;;;2.80;;
77449;SDS011;66536;53.150;18.172;2023-04-07T01:42:34;18.20;;;8.40;;
77449;SDS011;66536;53.150;18.172;2023-04-07T01:45:03;12.70;;;5.40;;
77449;SDS011;66536;53.150;18.172;2023-04-07T01:47:31;14.40;;;7.30;;
77449;SDS011;66536;53.150;18.172;2023-04-07T01:50:03;10.90;;;5.30;;
77449;SDS011;66536;53.150;18.172;2023-04-07T01:52:32;17.30;;;7.00;;
77449;SDS011;66536;53.150;18.172;2023-04-07T01:55:01;15.00;;;5.60;;
77449;SDS011;66536;53.150;18.172;2023-04-07T01:57:31;15.10;;;6.10;;
77449;SDS011;66536;53.150;18.172;2023-04-07T02:00:02;13.20;;;6.20;;
77449;SDS011;66536;53.150;18.172;2023-04-07T02:02:42;14.50;;;7.30;;
77449;SDS011;66536;53.150;18.172;2023-04-07T02:05:12;9.90;;;4.10;;
77449;SDS011;66536;53.150;18.172;2023-04-07T02:10:23;13.20;;;5.30;;
77449;SDS011;66536;53.150;18.172;2023-04-07T02:12:52;8.70;;;3.50;;
77449;SDS011;66536;53.150;18.172;2023-04-07T02:15:19;15.10;;;7.50;;
77449;SDS011;66536;53.150;18.172;2023-04-07T02:17:47;17.00;;;7.40;;
77449;SDS011;66536;53.150;18.172;2023-04-07T02:20:17;14.60;;;6.20;;
77449;SDS011;66536;53.150;18.172;2023-04-07T02:22:45;13.60;;;6.40;;
77449;SDS011;66536;53.150;18.172;2023-04-07T02:27:53;14.90;;;6.80;;
77449;SDS011;66536;53.150;18.172;2023-04-07T02:30:20;8.80;;;4.60;;
77449;SDS011;66536;53.150;18.172;2023-04-07T02:32:46;7.90;;;3.10;;
77449;SDS011;66536;53.150;18.172;2023-04-07T02:35:13;9.50;;;5.40;;
77449;SDS011;66536;53.150;18.172;2023-04-07T02:37:41;12.20;;;6.40;;
77449;SDS011;66536;53.150;18.172;2023-04-07T02:40:08;9.40;;;4.40;;
77449;SDS011;66536;53.150;18.172;2023-04-07T02:42:35;9.00;;;4.50;;
77449;SDS011;66536;53.150;18.172;2023-04-07T02:45:02;11.00;;;5.30;;
77449;SDS011;66536;53.150;18.172;2023-04-07T02:47:29;10.50;;;4.00;;
77449;SDS011;66536;53.150;18.172;2023-04-07T02:49:57;5.70;;;2.60;;
77449;SDS011;66536;53.150;18.172;2023-04-07T02:52:23;8.20;;;4.10;;
77449;SDS011;66536;53.150;18.172;2023-04-07T02:54:49;7.70;;;4.70;;
77449;SDS011;66536;53.150;18.172;2023-04-07T02:57:18;5.60;;;3.10;;
77449;SDS011;66536;53.150;18.172;2023-04-07T02:59:44;7.50;;;4.00;;
77449;SDS011;66536;53.150;18.172;2023-04-07T03:02:11;6.70;;;3.40;;
77449;SDS011;66536;53.150;18.172;2023-04-07T03:04:38;8.10;;;4.30;;
77449;SDS011;66536;53.150;18.172;2023-04-07T03:07:04;6.90;;;4.00;;
77449;SDS011;66536;53.150;18.172;2023-04-07T03:09:31;12.70;;;8.80;;
77449;SDS011;66536;53.150;18.172;2023-04-07T03:11:57;8.10;;;4.50;;
77449;SDS011;66536;53.150;18.172;2023-04-07T03:14:23;9.80;;;4.50;;
77449;SDS011;66536;53.150;18.172;2023-04-07T03:16:50;8.40;;;4.40;;
77449;SDS011;66536;53.150;18.172;2023-04-07T03:19:16;8.70;;;4.00;;
77449;SDS011;66536;53.150;18.172;2023-04-07T03:21:45;10.70;;;5.20;;
77449;SDS011;66536;53.150;18.172;2023-04-07T03:24:11;7.90;;;4.20;;
77449;SDS011;66536;53.150;18.172;2023-04-07T03:26:37;10.10;;;5.10;;
77449;SDS011;66536;53.150;18.172;2023-04-07T03:29:07;10.00;;;4.20;;
77449;SDS011;66536;53.150;18.172;2023-04-07T03:31:32;6.80;;;3.60;;
77449;SDS011;66536;53.150;18.172;2023-04-07T03:33:59;7.30;;;3.90;;
77449;SDS011;66536;53.150;18.172;2023-04-07T03:36:25;10.10;;;5.40;;
77449;SDS011;66536;53.150;18.172;2023-04-07T03:38:55;6.60;;;3.30;;
77449;SDS011;66536;53.150;18.172;2023-04-07T03:41:20;10.30;;;5.20;;
77449;SDS011;66536;53.150;18.172;2023-04-07T03:43:46;11.30;;;6.00;;
77449;SDS011;66536;53.150;18.172;2023-04-07T03:46:13;10.80;;;5.60;;
77449;SDS011;66536;53.150;18.172;2023-04-07T03:48:40;9.40;;;4.90;;
77449;SDS011;66536;53.150;18.172;2023-04-07T03:51:07;14.10;;;6.70;;
77449;SDS011;66536;53.150;18.172;2023-04-07T03:53:33;8.80;;;4.90;;
77449;SDS011;66536;53.150;18.172;2023-04-07T03:56:04;10.50;;;5.40;;
77449;SDS011;66536;53.150;18.172;2023-04-07T03:58:40;6.90;;;3.00;;
77449;SDS011;66536;53.150;18.172;2023-04-07T04:01:10;11.10;;;4.30;;
77449;SDS011;66536;53.150;18.172;2023-04-07T04:03:37;14.10;;;6.40;;
77449;SDS011;66536;53.150;18.172;2023-04-07T04:06:16;15.20;;;6.50;;
77449;SDS011;66536;53.150;18.172;2023-04-07T04:08:42;13.00;;;5.80;;
77449;SDS011;66536;53.150;18.172;2023-04-07T04:11:08;12.60;;;5.90;;
77449;SDS011;66536;53.150;18.172;2023-04-07T04:13:40;9.80;;;4.80;;
77449;SDS011;66536;53.150;18.172;2023-04-07T04:16:06;12.30;;;6.30;;
77449;SDS011;66536;53.150;18.172;2023-04-07T04:18:32;14.50;;;7.30;;
77449;SDS011;66536;53.150;18.172;2023-04-07T04:20:59;14.10;;;6.90;;
77449;SDS011;66536;53.150;18.172;2023-04-07T04:23:25;12.20;;;6.10;;
77449;SDS011;66536;53.150;18.172;2023-04-07T04:25:52;12.50;;;6.60;;
77449;SDS011;66536;53.150;18.172;2023-04-07T04:28:18;14.70;;;6.40;;
77449;SDS011;66536;53.150;18.172;2023-04-07T04:30:44;20.50;;;7.60;;
77449;SDS011;66536;53.150;18.172;2023-04-07T04:33:10;13.90;;;6.60;;
77449;SDS011;66536;53.150;18.172;2023-04-07T04:35:50;10.00;;;4.90;;
77449;SDS011;66536;53.150;18.172;2023-04-07T04:38:18;16.40;;;7.70;;
77449;SDS011;66536;53.150;18.172;2023-04-07T04:40:50;14.90;;;7.20;;
77449;SDS011;66536;53.150;18.172;2023-04-07T04:43:17;15.70;;;7.90;;
77449;SDS011;66536;53.150;18.172;2023-04-07T04:45:44;22.50;;;9.80;;
77449;SDS011;66536;53.150;18.172;2023-04-07T04:48:12;20.90;;;8.30;;
77449;SDS011;66536;53.150;18.172;2023-04-07T04:50:38;17.30;;;7.80;;
77449;SDS011;66536;53.150;18.172;2023-04-07T04:53:08;18.10;;;6.80;;
77449;SDS011;66536;53.150;18.172;2023-04-07T04:55:36;16.50;;;7.20;;
77449;SDS011;66536;53.150;18.172;2023-04-07T04:58:02;17.60;;;7.30;;
77449;SDS011;66536;53.150;18.172;2023-04-07T05:00:36;23.30;;;11.40;;
77449;SDS011;66536;53.150;18.172;2023-04-07T05:03:03;18.90;;;8.00;;
77449;SDS011;66536;53.150;18.172;2023-04-07T05:05:31;14.30;;;6.80;;
77449;SDS011;66536;53.150;18.172;2023-04-07T05:07:57;24.00;;;9.80;;
77449;SDS011;66536;53.150;18.172;2023-04-07T05:10:24;16.20;;;7.50;;
77449;SDS011;66536;53.150;18.172;2023-04-07T05:12:50;18.50;;;8.40;;
77449;SDS011;66536;53.150;18.172;2023-04-07T05:15:16;18.70;;;7.60;;
77449;SDS011;66536;53.150;18.172;2023-04-07T05:17:44;12.80;;;5.00;;
77449;SDS011;66536;53.150;18.172;2023-04-07T05:20:17;19.10;;;7.60;;
77449;SDS011;66536;53.150;18.172;2023-04-07T05:22:44;13.30;;;5.60;;
77449;SDS011;66536;53.150;18.172;2023-04-07T05:25:11;16.50;;;7.40;;
77449;SDS011;66536;53.150;18.172;2023-04-07T05:27:37;18.80;;;7.60;;
77449;SDS011;66536;53.150;18.172;2023-04-07T05:30:08;25.50;;;10.30;;
77449;SDS011;66536;53.150;18.172;2023-04-07T05:32:35;22.20;;;8.70;;
77449;SDS011;66536;53.150;18.172;2023-04-07T05:35:05;38.40;;;16.20;;
77449;SDS011;66536;53.150;18.172;2023-04-07T05:37:34;22.90;;;10.10;;
77449;SDS011;66536;53.150;18.172;2023-04-07T05:40:02;21.10;;;9.90;;
77449;SDS011;66536;53.150;18.172;2023-04-07T05:42:29;21.10;;;9.70;;
77449;SDS011;66536;53.150;18.172;2023-04-07T05:44:58;20.60;;;9.00;;
77449;SDS011;66536;53.150;18.172;2023-04-07T05:47:24;19.90;;;8.10;;
77449;SDS011;66536;53.150;18.172;2023-04-07T05:49:50;19.00;;;8.40;;
77449;SDS011;66536;53.150;18.172;2023-04-07T05:52:16;21.80;;;8.40;;
77449;SDS011;66536;53.150;18.172;2023-04-07T05:54:46;19.00;;;8.40;;
77449;SDS011;66536;53.150;18.172;2023-04-07T05:57:13;18.40;;;7.80;;
77449;SDS011;66536;53.150;18.172;2023-04-07T05:59:42;16.50;;;7.40;;
77449;SDS011;66536;53.150;18.172;2023-04-07T06:02:08;17.70;;;7.50;;
77449;SDS011;66536;53.150;18.172;2023-04-07T06:04:34;15.40;;;8.30;;
77449;SDS011;66536;53.150;18.172;2023-04-07T06:07:04;10.10;;;5.40;;
77449;SDS011;66536;53.150;18.172;2023-04-07T06:09:31;28.30;;;13.40;;
77449;SDS011;66536;53.150;18.172;2023-04-07T06:11:57;21.40;;;8.70;;
77449;SDS011;66536;53.150;18.172;2023-04-07T06:14:26;18.50;;;7.80;;
77449;SDS011;66536;53.150;18.172;2023-04-07T06:16:52;25.90;;;10.40;;
77449;SDS011;66536;53.150;18.172;2023-04-07T06:19:18;15.70;;;7.30;;
77449;SDS011;66536;53.150;18.172;2023-04-07T06:21:44;13.90;;;7.30;;
77449;SDS011;66536;53.150;18.172;2023-04-07T06:24:10;14.70;;;7.60;;
77449;SDS011;66536;53.150;18.172;2023-04-07T06:26:36;19.20;;;7.80;;
77449;SDS011;66536;53.150;18.172;2023-04-07T06:29:04;19.90;;;8.80;;
77449;SDS011;66536;53.150;18.172;2023-04-07T06:31:31;18.70;;;8.40;;
77449;SDS011;66536;53.150;18.172;2023-04-07T06:33:57;17.80;;;8.50;;
77449;SDS011;66536;53.150;18.172;2023-04-07T06:36:23;24.30;;;10.10;;
77449;SDS011;66536;53.150;18.172;2023-04-07T06:38:52;15.70;;;7.20;;
77449;SDS011;66536;53.150;18.172;2023-04-07T06:41:18;18.30;;;8.90;;
77449;SDS011;66536;53.150;18.172;2023-04-07T06:43:45;16.70;;;7.80;;
77449;SDS011;66536;53.150;18.172;2023-04-07T06:46:12;19.60;;;9.70;;
77449;SDS011;66536;53.150;18.172;2023-04-07T06:48:38;17.30;;;7.00;;
77449;SDS011;66536;53.150;18.172;2023-04-07T06:51:05;17.20;;;8.50;;
77449;SDS011;66536;53.150;18.172;2023-04-07T06:53:31;13.70;;;5.80;;
77449;SDS011;66536;53.150;18.172;2023-04-07T06:58:34;16.90;;;8.50;;
77449;SDS011;66536;53.150;18.172;2023-04-07T07:01:00;21.40;;;10.00;;
77449;SDS011;66536;53.150;18.172;2023-04-07T07:03:27;22.30;;;11.00;;
77449;SDS011;66536;53.150;18.172;2023-04-07T07:05:54;19.50;;;8.40;;
77449;SDS011;66536;53.150;18.172;2023-04-07T07:08:21;17.80;;;9.00;;
77449;SDS011;66536;53.150;18.172;2023-04-07T07:10:48;16.80;;;8.30;;
77449;SDS011;66536;53.150;18.172;2023-04-07T07:13:13;19.60;;;9.50;;
77449;SDS011;66536;53.150;18.172;2023-04-07T07:15:40;13.60;;;7.60;;
77449;SDS011;66536;53.150;18.172;2023-04-07T07:18:05;21.50;;;8.90;;
77449;SDS011;66536;53.150;18.172;2023-04-07T07:20:31;23.50;;;10.30;;
77449;SDS011;66536;53.150;18.172;2023-04-07T07:22:57;13.80;;;7.30;;
77449;SDS011;66536;53.150;18.172;2023-04-07T07:25:24;11.40;;;5.90;;
77449;SDS011;66536;53.150;18.172;2023-04-07T07:27:54;17.60;;;8.30;;
77449;SDS011;66536;53.150;18.172;2023-04-07T07:30:22;12.80;;;6.70;;
77449;SDS011;66536;53.150;18.172;2023-04-07T07:32:49;18.00;;;8.00;;
77449;SDS011;66536;53.150;18.172;2023-04-07T07:35:18;17.10;;;8.90;;
77449;SDS011;66536;53.150;18.172;2023-04-07T07:37:45;16.50;;;8.50;;
77449;SDS011;66536;53.150;18.172;2023-04-07T07:40:13;15.50;;;8.50;;
77449;SDS011;66536;53.150;18.172;2023-04-07T07:42:40;16.50;;;8.30;;
77449;SDS011;66536;53.150;18.172;2023-04-07T07:45:07;21.60;;;11.10;;
77449;SDS011;66536;53.150;18.172;2023-04-07T07:47:33;19.30;;;9.00;;
77449;SDS011;66536;53.150;18.172;2023-04-07T07:50:02;16.70;;;8.60;;
77449;SDS011;66536;53.150;18.172;2023-04-07T07:52:30;30.60;;;18.30;;
77449;SDS011;66536;53.150;18.172;2023-04-07T07:54:56;16.40;;;8.00;;
77449;SDS011;66536;53.150;18.172;2023-04-07T07:57:22;14.60;;;7.40;;
77449;SDS011;66536;53.150;18.172;2023-04-07T07:59:49;16.70;;;8.00;;
77449;SDS011;66536;53.150;18.172;2023-04-07T08:02:15;22.00;;;13.40;;
77449;SDS011;66536;53.150;18.172;2023-04-07T08:04:41;14.20;;;6.30;;
77449;SDS011;66536;53.150;18.172;2023-04-07T08:07:07;18.10;;;10.10;;
77449;SDS011;66536;53.150;18.172;2023-04-07T08:09:33;16.60;;;7.20;;
77449;SDS011;66536;53.150;18.172;2023-04-07T08:11:59;21.30;;;12.60;;
77449;SDS011;66536;53.150;18.172;2023-04-07T08:14:25;22.10;;;14.40;;
77449;SDS011;66536;53.150;18.172;2023-04-07T08:16:51;17.90;;;9.30;;
77449;SDS011;66536;53.150;18.172;2023-04-07T08:19:17;15.80;;;7.80;;
77449;SDS011;66536;53.150;18.172;2023-04-07T08:21:43;12.90;;;6.10;;
77449;SDS011;66536;53.150;18.172;2023-04-07T08:24:09;15.00;;;7.40;;
77449;SDS011;66536;53.150;18.172;2023-04-07T08:26:35;11.50;;;5.80;;
77449;SDS011;66536;53.150;18.172;2023-04-07T08:29:01;9.30;;;5.40;;
77449;SDS011;66536;53.150;18.172;2023-04-07T08:31:27;18.60;;;8.90;;
77449;SDS011;66536;53.150;18.172;2023-04-07T08:33:53;16.80;;;7.90;;
77449;SDS011;66536;53.150;18.172;2023-04-07T08:36:23;18.70;;;8.70;;
77449;SDS011;66536;53.150;18.172;2023-04-07T08:38:49;14.40;;;7.50;;
77449;SDS011;66536;53.150;18.172;2023-04-07T08:41:16;18.90;;;10.20;;
77449;SDS011;66536;53.150;18.172;2023-04-07T08:43:46;11.00;;;6.00;;
77449;SDS011;66536;53.150;18.172;2023-04-07T08:46:14;16.00;;;7.90;;
77449;SDS011;66536;53.150;18.172;2023-04-07T08:48:40;15.90;;;6.80;;
77449;SDS011;66536;53.150;18.172;2023-04-07T08:51:09;10.10;;;5.50;;
77449;SDS011;66536;53.150;18.172;2023-04-07T08:53:40;13.30;;;6.40;;
77449;SDS011;66536;53.150;18.172;2023-04-07T08:56:11;7.80;;;4.00;;
77449;SDS011;66536;53.150;18.172;2023-04-07T08:58:38;20.10;;;11.10;;
77449;SDS011;66536;53.150;18.172;2023-04-07T09:01:05;10.30;;;5.40;;
77449;SDS011;66536;53.150;18.172;2023-04-07T09:03:32;9.30;;;4.80;;
77449;SDS011;66536;53.150;18.172;2023-04-07T09:05:59;9.40;;;5.50;;
77449;SDS011;66536;53.150;18.172;2023-04-07T09:08:26;8.70;;;5.50;;
77449;SDS011;66536;53.150;18.172;2023-04-07T09:10:53;10.20;;;5.80;;
77449;SDS011;66536;53.150;18.172;2023-04-07T09:13:19;9.90;;;5.10;;
77449;SDS011;66536;53.150;18.172;2023-04-07T09:15:45;13.20;;;7.10;;
77449;SDS011;66536;53.150;18.172;2023-04-07T09:18:12;10.80;;;6.30;;
77449;SDS011;66536;53.150;18.172;2023-04-07T09:23:27;12.30;;;6.30;;
77449;SDS011;66536;53.150;18.172;2023-04-07T09:25:55;11.10;;;5.70;;
77449;SDS011;66536;53.150;18.172;2023-04-07T09:28:21;9.90;;;5.00;;
77449;SDS011;66536;53.150;18.172;2023-04-07T09:30:54;10.70;;;6.20;;
77449;SDS011;66536;53.150;18.172;2023-04-07T09:33:26;12.80;;;7.60;;
77449;SDS011;66536;53.150;18.172;2023-04-07T09:35:53;13.00;;;7.40;;
77449;SDS011;66536;53.150;18.172;2023-04-07T09:38:19;12.00;;;6.40;;
77449;SDS011;66536;53.150;18.172;2023-04-07T09:40:45;14.00;;;8.20;;
77449;SDS011;66536;53.150;18.172;2023-04-07T09:43:14;14.50;;;8.60;;
77449;SDS011;66536;53.150;18.172;2023-04-07T09:45:43;11.10;;;5.70;;
77449;SDS011;66536;53.150;18.172;2023-04-07T09:50:46;8.80;;;4.80;;
77449;SDS011;66536;53.150;18.172;2023-04-07T09:53:14;14.00;;;8.20;;
77449;SDS011;66536;53.150;18.172;2023-04-07T09:55:41;18.20;;;8.50;;
77449;SDS011;66536;53.150;18.172;2023-04-07T09:58:10;12.30;;;6.50;;
77449;SDS011;66536;53.150;18.172;2023-04-07T10:00:38;14.90;;;8.00;;
77449;SDS011;66536;53.150;18.172;2023-04-07T10:03:06;14.40;;;8.20;;
77449;SDS011;66536;53.150;18.172;2023-04-07T10:05:33;14.00;;;8.30;;
77449;SDS011;66536;53.150;18.172;2023-04-07T10:08:02;36.70;;;19.30;;
77449;SDS011;66536;53.150;18.172;2023-04-07T10:10:30;35.00;;;17.60;;
77449;SDS011;66536;53.150;18.172;2023-04-07T10:12:57;47.70;;;22.30;;
77449;SDS011;66536;53.150;18.172;2023-04-07T10:15:23;31.70;;;14.10;;
77449;SDS011;66536;53.150;18.172;2023-04-07T10:17:51;24.70;;;12.90;;
77449;SDS011;66536;53.150;18.172;2023-04-07T10:20:21;42.50;;;19.00;;
77449;SDS011;66536;53.150;18.172;2023-04-07T10:22:48;20.80;;;13.50;;
77449;SDS011;66536;53.150;18.172;2023-04-07T10:25:17;44.80;;;19.00;;
77449;SDS011;66536;53.150;18.172;2023-04-07T10:27:47;27.30;;;14.10;;
77449;SDS011;66536;53.150;18.172;2023-04-07T10:30:21;22.70;;;13.70;;
77449;SDS011;66536;53.150;18.172;2023-04-07T10:32:50;24.50;;;12.50;;
77449;SDS011;66536;53.150;18.172;2023-04-07T10:35:18;20.60;;;11.70;;
77449;SDS011;66536;53.150;18.172;2023-04-07T10:38:08;18.20;;;10.60;;
77449;SDS011;66536;53.150;18.172;2023-04-07T10:40:38;17.70;;;11.20;;
77449;SDS011;66536;53.150;18.172;2023-04-07T10:43:06;14.50;;;8.00;;
77449;SDS011;66536;53.150;18.172;2023-04-07T10:48:22;15.40;;;9.70;;
77449;SDS011;66536;53.150;18.172;2023-04-07T10:53:57;19.50;;;11.70;;
77449;SDS011;66536;53.150;18.172;2023-04-07T10:59:22;23.00;;;12.90;;
77449;SDS011;66536;53.150;18.172;2023-04-07T11:02:09;19.50;;;10.60;;
77449;SDS011;66536;53.150;18.172;2023-04-07T11:04:55;20.50;;;10.00;;
77449;SDS011;66536;53.150;18.172;2023-04-07T11:07:42;21.70;;;12.70;;
77449;SDS011;66536;53.150;18.172;2023-04-07T11:10:10;20.30;;;12.00;;
77449;SDS011;66536;53.150;18.172;2023-04-07T11:12:38;15.10;;;8.90;;
77449;SDS011;66536;53.150;18.172;2023-04-07T11:17:42;17.90;;;11.30;;
77449;SDS011;66536;53.150;18.172;2023-04-07T11:20:08;16.90;;;10.40;;
77449;SDS011;66536;53.150;18.172;2023-04-07T11:22:58;18.50;;;11.30;;
77449;SDS011;66536;53.150;18.172;2023-04-07T11:25:35;16.90;;;8.20;;
77449;SDS011;66536;53.150;18.172;2023-04-07T11:28:10;19.90;;;10.20;;
77449;SDS011;66536;53.150;18.172;2023-04-07T11:30:38;13.40;;;6.90;;
77449;SDS011;66536;53.150;18.172;2023-04-07T11:33:20;21.50;;;11.30;;
77449;SDS011;66536;53.150;18.172;2023-04-07T11:35:52;28.00;;;15.00;;
77449;SDS011;66536;53.150;18.172;2023-04-07T11:38:34;18.40;;;11.10;;
77449;SDS011;66536;53.150;18.172;2023-04-07T11:41:10;12.90;;;7.20;;
77449;SDS011;66536;53.150;18.172;2023-04-07T11:44:04;31.80;;;18.20;;
77449;SDS011;66536;53.150;18.172;2023-04-07T11:46:34;12.90;;;7.90;;
77449;SDS011;66536;53.150;18.172;2023-04-07T11:49:24;23.20;;;12.40;;
77449;SDS011;66536;53.150;18.172;2023-04-07T11:52:02;23.80;;;12.20;;
77449;SDS011;66536;53.150;18.172;2023-04-07T11:54:59;21.50;;;11.60;;
77449;SDS011;66536;53.150;18.172;2023-04-07T11:57:37;17.40;;;9.90;;
77449;SDS011;66536;53.150;18.172;2023-04-07T12:00:10;22.90;;;11.00;;
77449;SDS011;66536;53.150;18.172;2023-04-07T12:02:41;25.50;;;13.50;;
77449;SDS011;66536;53.150;18.172;2023-04-07T12:05:11;21.60;;;11.40;;
77449;SDS011;66536;53.150;18.172;2023-04-07T12:08:12;20.40;;;12.40;;
77449;SDS011;66536;53.150;18.172;2023-04-07T12:10:47;18.40;;;10.60;;
77449;SDS011;66536;53.150;18.172;2023-04-07T12:13:15;24.30;;;12.20;;
77449;SDS011;66536;53.150;18.172;2023-04-07T12:15:57;21.10;;;11.70;;
77449;SDS011;66536;53.150;18.172;2023-04-07T12:18:27;22.00;;;11.90;;
77449;SDS011;66536;53.150;18.172;2023-04-07T12:20:54;21.00;;;10.00;;
77449;SDS011;66536;53.150;18.172;2023-04-07T12:23:22;17.20;;;9.20;;
77449;SDS011;66536;53.150;18.172;2023-04-07T12:25:48;21.40;;;11.50;;
77449;SDS011;66536;53.150;18.172;2023-04-07T12:28:17;20.00;;;10.70;;
77449;SDS011;66536;53.150;18.172;2023-04-07T12:30:46;14.10;;;8.20;;
77449;SDS011;66536;53.150;18.172;2023-04-07T12:33:17;20.20;;;11.50;;
77449;SDS011;66536;53.150;18.172;2023-04-07T12:35:43;20.20;;;11.50;;
77449;SDS011;66536;53.150;18.172;2023-04-07T12:38:11;21.80;;;12.50;;
77449;SDS011;66536;53.150;18.172;2023-04-07T12:40:39;22.30;;;12.00;;
77449;SDS011;66536;53.150;18.172;2023-04-07T12:43:17;20.20;;;11.40;;
77449;SDS011;66536;53.150;18.172;2023-04-07T12:45:50;23.50;;;13.10;;
77449;SDS011;66536;53.150;18.172;2023-04-07T12:48:35;25.90;;;13.70;;
77449;SDS011;66536;53.150;18.172;2023-04-07T12:51:04;21.70;;;11.80;;
77449;SDS011;66536;53.150;18.172;2023-04-07T12:53:33;15.60;;;8.80;;
77449;SDS011;66536;53.150;18.172;2023-04-07T12:56:01;17.70;;;9.60;;
77449;SDS011;66536;53.150;18.172;2023-04-07T12:58:30;18.00;;;9.50;;
77449;SDS011;66536;53.150;18.172;2023-04-07T13:01:13;24.40;;;13.30;;
77449;SDS011;66536;53.150;18.172;2023-04-07T13:03:48;21.90;;;12.50;;
77449;SDS011;66536;53.150;18.172;2023-04-07T13:06:15;20.40;;;11.80;;
77449;SDS011;66536;53.150;18.172;2023-04-07T13:08:42;14.50;;;9.50;;
77449;SDS011;66536;53.150;18.172;2023-04-07T13:11:13;9.60;;;6.20;;
77449;SDS011;66536;53.150;18.172;2023-04-07T13:13:46;18.20;;;9.70;;
77449;SDS011;66536;53.150;18.172;2023-04-07T13:16:24;13.30;;;8.00;;
77449;SDS011;66536;53.150;18.172;2023-04-07T13:19:11;22.90;;;15.80;;
77449;SDS011;66536;53.150;18.172;2023-04-07T13:21:43;18.00;;;11.30;;
77449;SDS011;66536;53.150;18.172;2023-04-07T13:24:09;16.50;;;9.60;;
77449;SDS011;66536;53.150;18.172;2023-04-07T13:26:39;21.80;;;13.10;;
77449;SDS011;66536;53.150;18.172;2023-04-07T13:29:13;19.40;;;13.40;;
77449;SDS011;66536;53.150;18.172;2023-04-07T13:31:40;20.30;;;13.20;;
77449;SDS011;66536;53.150;18.172;2023-04-07T13:34:07;30.70;;;20.10;;
77449;SDS011;66536;53.150;18.172;2023-04-07T13:36:33;22.50;;;14.50;;
77449;SDS011;66536;53.150;18.172;2023-04-07T13:38:59;17.50;;;10.80;;
77449;SDS011;66536;53.150;18.172;2023-04-07T13:41:26;20.30;;;11.70;;
77449;SDS011;66536;53.150;18.172;2023-04-07T13:43:52;21.00;;;13.90;;
77449;SDS011;66536;53.150;18.172;2023-04-07T13:46:22;18.70;;;11.00;;
77449;SDS011;66536;53.150;18.172;2023-04-07T13:48:54;21.00;;;11.60;;
77449;SDS011;66536;53.150;18.172;2023-04-07T13:51:23;18.90;;;9.90;;
77449;SDS011;66536;53.150;18.172;2023-04-07T13:53:59;26.30;;;13.90;;
77449;SDS011;66536;53.150;18.172;2023-04-07T13:56:25;25.40;;;13.90;;
77449;SDS011;66536;53.150;18.172;2023-04-07T13:58:59;25.40;;;13.00;;
77449;SDS011;66536;53.150;18.172;2023-04-07T14:01:27;29.60;;;16.40;;
77449;SDS011;66536;53.150;18.172;2023-04-07T14:03:53;27.20;;;14.90;;
77449;SDS011;66536;53.150;18.172;2023-04-07T14:06:20;21.50;;;11.90;;
77449;SDS011;66536;53.150;18.172;2023-04-07T14:08:50;18.10;;;9.70;;
77449;SDS011;66536;53.150;18.172;2023-04-07T14:11:19;28.00;;;15.30;;
77449;SDS011;66536;53.150;18.172;2023-04-07T14:14:00;21.60;;;12.80;;
77449;SDS011;66536;53.150;18.172;2023-04-07T14:16:29;23.30;;;13.60;;
77449;SDS011;66536;53.150;18.172;2023-04-07T14:18:58;13.50;;;8.30;;
77449;SDS011;66536;53.150;18.172;2023-04-07T14:21:25;18.10;;;10.10;;
77449;SDS011;66536;53.150;18.172;2023-04-07T14:23:53;20.90;;;11.10;;
77449;SDS011;66536;53.150;18.172;2023-04-07T14:26:25;28.70;;;17.50;;
77449;SDS011;66536;53.150;18.172;2023-04-07T14:28:52;22.80;;;13.50;;
77449;SDS011;66536;53.150;18.172;2023-04-07T14:31:21;18.20;;;11.60;;
77449;SDS011;66536;53.150;18.172;2023-04-07T14:33:49;18.30;;;10.70;;
77449;SDS011;66536;53.150;18.172;2023-04-07T14:36:15;30.70;;;16.50;;
77449;SDS011;66536;53.150;18.172;2023-04-07T14:38:42;26.20;;;14.50;;
77449;SDS011;66536;53.150;18.172;2023-04-07T14:41:09;24.30;;;13.50;;
77449;SDS011;66536;53.150;18.172;2023-04-07T14:43:36;22.00;;;12.90;;
77449;SDS011;66536;53.150;18.172;2023-04-07T14:46:22;20.50;;;13.00;;
77449;SDS011;66536;53.150;18.172;2023-04-07T14:49:09;27.50;;;15.40;;
77449;SDS011;66536;53.150;18.172;2023-04-07T14:51:40;25.50;;;14.70;;
77449;SDS011;66536;53.150;18.172;2023-04-07T14:54:31;30.40;;;18.10;;
77449;SDS011;66536;53.150;18.172;2023-04-07T14:57:07;33.30;;;20.00;;